createdAt,value
2019-02-01T00:00:37.228Z,2.60
2019-02-01T00:03:08.668Z,2.70
2019-02-01T00:05:41.132Z,2.60
2019-02-01T00:08:13.839Z,2.60
2019-02-01T00:10:46.047Z,2.60
2019-02-01T00:13:18.457Z,2.60
2019-02-01T00:15:48.782Z,2.60
2019-02-01T00:18:19.299Z,2.60
2019-02-01T00:21:10.000Z,2.60
2019-02-01T00:23:58.389Z,2.50
2019-02-01T00:26:30.698Z,2.50
2019-02-01T00:29:29.235Z,2.50
2019-02-01T00:32:07.073Z,2.50
2019-02-01T00:34:47.566Z,2.50
2019-02-01T00:37:21.288Z,2.50
2019-02-01T00:39:55.089Z,2.60
2019-02-01T00:42:52.191Z,2.60
2019-02-01T00:45:38.350Z,2.60
2019-02-01T00:48:12.480Z,2.60
2019-02-01T00:50:42.656Z,2.50
2019-02-01T00:53:12.759Z,2.50
2019-02-01T00:55:43.115Z,2.30
2019-02-01T00:58:13.283Z,2.10
2019-02-01T01:00:46.660Z,2.20
2019-02-01T01:03:15.600Z,2.10
2019-02-01T01:05:45.736Z,2.10
2019-02-01T01:08:18.253Z,2.20
2019-02-01T01:10:48.394Z,2.20
2019-02-01T01:13:18.554Z,2.30
2019-02-01T01:15:48.999Z,2.40
2019-02-01T01:18:23.906Z,2.40
2019-02-01T01:20:54.522Z,2.30
2019-02-01T01:23:24.795Z,2.30
2019-02-01T01:25:55.299Z,2.30
2019-02-01T01:28:25.989Z,2.40
2019-02-01T01:30:57.859Z,2.50
2019-02-01T01:33:29.271Z,2.50
2019-02-01T01:35:59.573Z,2.60
2019-02-01T01:38:31.531Z,2.50
2019-02-01T01:41:01.797Z,2.50
2019-02-01T01:43:32.448Z,2.40
2019-02-01T01:46:02.740Z,2.40
2019-02-01T01:48:35.271Z,2.30
2019-02-01T01:51:04.798Z,2.30
2019-02-01T01:53:34.962Z,2.30
2019-02-01T01:56:05.192Z,2.40
2019-02-01T01:58:35.344Z,2.40
2019-02-01T02:01:05.620Z,2.40
2019-02-01T02:03:36.218Z,2.30
2019-02-01T02:06:06.942Z,2.30
2019-02-01T02:08:37.071Z,2.40
2019-02-01T02:11:07.525Z,2.40
2019-02-01T02:13:38.059Z,2.40
2019-02-01T02:16:08.220Z,2.50
2019-02-01T02:18:46.205Z,2.40
2019-02-01T02:21:10.265Z,2.50
2019-02-01T02:23:40.450Z,2.50
2019-02-01T02:26:12.994Z,2.50
2019-02-01T02:28:43.983Z,2.50
2019-02-01T02:31:14.657Z,2.50
2019-02-01T02:33:44.762Z,2.50
2019-02-01T02:36:17.162Z,2.50
2019-02-01T02:38:47.587Z,2.30
2019-02-01T02:41:18.947Z,2.30
2019-02-01T02:43:49.188Z,2.20
2019-02-01T02:46:19.462Z,2.10
2019-02-01T02:49:00.006Z,2.10
2019-02-01T02:51:24.339Z,2.20
2019-02-01T02:53:54.468Z,2.20
2019-02-01T02:56:27.273Z,2.30
2019-02-01T02:58:57.491Z,2.40
2019-02-01T03:01:27.605Z,2.50
2019-02-01T03:03:57.923Z,2.50
2019-02-01T03:06:28.303Z,2.40
2019-02-01T03:08:58.455Z,2.30
2019-02-01T03:11:28.632Z,2.30
2019-02-01T03:13:58.754Z,2.20
2019-02-01T03:16:28.862Z,2.20
2019-02-01T03:19:12.131Z,2.30
2019-02-01T03:21:31.555Z,2.20
2019-02-01T03:24:01.678Z,2.30
2019-02-01T03:26:31.819Z,2.30
2019-02-01T03:29:02.265Z,2.40
2019-02-01T03:31:33.073Z,2.40
2019-02-01T03:34:05.785Z,2.40
2019-02-01T03:36:38.283Z,2.50
2019-02-01T03:39:09.042Z,2.50
2019-02-01T03:41:40.871Z,2.50
2019-02-01T03:44:12.339Z,2.60
2019-02-01T03:46:42.517Z,2.60
2019-02-01T03:49:25.153Z,2.70
2019-02-01T03:51:46.835Z,2.70
2019-02-01T03:54:16.956Z,2.70
2019-02-01T03:56:47.235Z,2.60
2019-02-01T03:59:17.409Z,2.50
2019-02-01T04:02:16.784Z,2.40
2019-02-01T04:04:59.610Z,2.30
2019-02-01T04:07:48.104Z,2.30
2019-02-01T04:10:40.126Z,2.30
2019-02-01T04:13:29.415Z,2.30
2019-02-01T04:16:24.196Z,2.20
2019-02-01T04:19:11.912Z,2.20
2019-02-01T04:21:56.031Z,2.20
2019-02-01T04:24:43.568Z,2.20
2019-02-01T04:27:34.154Z,2.30
2019-02-01T04:30:22.297Z,2.30
2019-02-01T04:33:32.665Z,2.40
2019-02-01T04:36:24.214Z,2.30
2019-02-01T04:39:05.166Z,2.30
2019-02-01T04:42:06.854Z,2.40
2019-02-01T04:44:47.989Z,2.50
2019-02-01T04:47:51.331Z,2.30
2019-02-01T04:50:40.268Z,2.30
2019-02-01T04:53:29.431Z,2.30
2019-02-01T04:56:16.402Z,2.30
2019-02-01T04:59:01.611Z,2.30
2019-02-01T05:01:52.242Z,2.30
2019-02-01T05:05:00.385Z,2.40
2019-02-01T05:08:04.231Z,2.40
2019-02-01T05:11:06.578Z,2.40
2019-02-01T05:14:06.859Z,2.40
2019-02-01T05:16:56.067Z,2.40
2019-02-01T05:19:54.077Z,2.40
2019-02-01T05:22:59.563Z,2.30
2019-02-01T05:25:50.067Z,2.30
2019-02-01T05:28:42.641Z,2.20
2019-02-01T05:32:00.924Z,2.30
2019-02-01T05:39:35.049Z,2.20
2019-02-01T05:47:38.560Z,2.30
2019-02-01T05:58:53.160Z,2.40
2019-02-01T06:01:40.794Z,2.40
2019-02-01T06:04:39.819Z,2.40
2019-02-01T06:07:48.121Z,2.50
2019-02-01T06:11:14.641Z,2.50
2019-02-01T06:13:55.417Z,2.60
2019-02-01T06:16:52.041Z,2.60
2019-02-01T06:19:55.049Z,2.50
2019-02-01T06:23:07.575Z,2.50
2019-02-01T06:26:00.471Z,2.60
2019-02-01T06:28:57.592Z,2.50
2019-02-01T06:31:59.640Z,2.60
2019-02-01T06:35:05.127Z,2.60
2019-02-01T06:37:57.284Z,2.60
2019-02-01T06:40:53.350Z,2.70
2019-02-01T06:43:49.284Z,2.70
2019-02-01T06:46:52.584Z,2.70
2019-02-01T06:50:00.324Z,2.70
2019-02-01T06:53:20.003Z,2.80
2019-02-01T06:56:22.552Z,2.80
2019-02-01T06:59:14.065Z,2.80
2019-02-01T07:01:51.754Z,2.80
2019-02-01T07:04:41.290Z,2.80
2019-02-01T07:07:40.973Z,2.90
2019-02-01T07:10:38.529Z,2.90
2019-02-01T07:13:28.658Z,2.90
2019-02-01T07:16:20.845Z,2.90
2019-02-01T07:19:15.765Z,2.80
2019-02-01T07:22:08.557Z,2.60
2019-02-01T07:25:03.376Z,2.50
2019-02-01T07:28:04.530Z,2.60
2019-02-01T07:31:07.010Z,2.70
2019-02-01T07:33:50.637Z,2.60
2019-02-01T07:36:23.394Z,2.70
2019-02-01T07:38:57.633Z,2.70
2019-02-01T07:41:29.043Z,2.80
2019-02-01T07:44:02.812Z,2.90
2019-02-01T07:46:48.759Z,3.00
2019-02-01T07:49:33.350Z,3.10
2019-02-01T07:52:16.737Z,3.20
2019-02-01T07:55:15.000Z,3.20
2019-02-01T07:57:58.385Z,3.20
2019-02-01T08:01:11.325Z,3.30
2019-02-01T08:04:26.363Z,3.40
2019-02-01T08:07:23.033Z,3.40
2019-02-01T08:10:25.520Z,3.50
2019-02-01T08:13:33.033Z,3.60
2019-02-01T08:16:50.041Z,3.70
2019-02-01T08:20:04.837Z,3.60
2019-02-01T08:23:17.165Z,3.70
2019-02-01T08:26:11.251Z,3.50
2019-02-01T08:32:30.809Z,3.60
2019-02-01T08:35:19.999Z,3.70
2019-02-01T08:38:14.839Z,3.80
2019-02-01T08:41:23.210Z,4.00
2019-02-01T08:47:37.731Z,4.10
2019-02-01T08:50:31.876Z,4.20
2019-02-01T08:53:29.919Z,4.20
2019-02-01T09:01:02.071Z,4.10
2019-02-01T09:08:13.454Z,4.20
2019-02-01T09:15:07.067Z,3.90
2019-02-01T09:21:58.578Z,4.00
2019-02-01T09:25:09.901Z,3.90
2019-02-01T09:28:47.006Z,3.80
2019-02-01T12:22:24.792Z,7.10
2019-02-01T12:24:56.706Z,7.20
2019-02-01T12:27:26.855Z,7.20
2019-02-01T12:29:57.294Z,7.30
2019-02-01T12:32:27.518Z,7.40
2019-02-01T12:34:58.273Z,7.50
2019-02-01T12:37:29.696Z,7.40
2019-02-01T12:40:10.939Z,7.40
2019-02-01T12:43:05.969Z,7.50
2019-02-01T12:45:46.058Z,7.40
2019-02-01T12:48:24.164Z,7.50
2019-02-01T12:51:24.780Z,7.50
2019-02-01T12:54:21.480Z,7.50
2019-02-01T12:57:04.377Z,7.60
2019-02-01T12:59:50.279Z,7.50
2019-02-01T13:02:41.028Z,7.60
2019-02-01T13:05:27.478Z,7.70
2019-02-01T13:08:13.240Z,7.80
2019-02-01T13:11:08.649Z,7.70
2019-02-01T13:14:18.185Z,7.40
2019-02-01T13:17:08.762Z,7.40
2019-02-01T13:19:57.872Z,7.40
2019-02-01T13:22:49.201Z,7.50
2019-02-01T13:25:43.489Z,7.60
2019-02-01T13:28:30.007Z,7.70
2019-02-01T13:31:31.389Z,7.70
2019-02-01T13:34:19.411Z,7.60
2019-02-01T13:37:25.277Z,7.60
2019-02-01T13:40:13.487Z,7.60
2019-02-01T13:43:10.788Z,7.40
2019-02-01T13:46:01.327Z,7.40
2019-02-01T13:48:39.424Z,7.40
2019-02-01T13:51:13.811Z,7.40
2019-02-01T13:53:52.607Z,7.30
2019-02-01T13:56:23.571Z,7.20
2019-02-01T14:01:49.803Z,7.10
2019-02-01T14:04:24.192Z,7.00
2019-02-01T14:09:53.582Z,6.90
2019-02-01T14:12:38.653Z,6.80
2019-02-01T14:15:15.776Z,6.80
2019-02-01T14:17:49.661Z,6.70
2019-02-01T14:20:26.276Z,6.60
2019-02-01T14:23:25.446Z,6.40
2019-02-01T14:25:56.167Z,6.40
2019-02-01T14:28:31.340Z,6.40
2019-02-01T14:31:04.882Z,6.50
2019-02-01T14:33:38.378Z,6.40
2019-02-01T14:36:20.582Z,6.40
2019-02-01T14:38:51.118Z,6.30
2019-02-01T14:41:22.576Z,6.20
2019-02-01T14:43:58.694Z,6.20
2019-02-01T14:46:31.925Z,6.20
2019-02-01T14:49:03.573Z,6.20
2019-02-01T14:51:35.976Z,6.20
2019-02-01T14:59:32.970Z,6.10
2019-02-01T15:02:50.215Z,6.00
2019-02-01T15:09:23.658Z,5.90
2019-02-01T15:12:30.499Z,5.90
2019-02-01T15:16:38.569Z,5.80
2019-02-01T15:20:15.321Z,5.70
2019-02-01T15:27:19.399Z,5.70
2019-02-01T15:34:12.430Z,5.60
2019-02-01T16:13:07.263Z,4.50
2019-02-01T16:30:18.116Z,4.70
2019-02-01T16:48:14.154Z,4.40
2019-02-01T16:58:51.570Z,4.10
2019-02-01T17:02:24.563Z,4.10
2019-02-01T17:05:32.320Z,4.10
2019-02-01T17:15:51.589Z,4.20
2019-02-01T17:18:24.382Z,4.20
2019-02-01T17:20:58.790Z,4.20
2019-02-01T17:55:29.162Z,3.80
2019-02-01T17:59:11.458Z,3.90
2019-02-01T18:01:41.643Z,3.90
2019-02-01T18:04:14.227Z,3.90
2019-02-01T18:06:44.668Z,3.90
2019-02-01T18:09:35.577Z,3.90
2019-02-01T18:23:16.243Z,4.10
2019-02-01T18:26:09.330Z,4.30
2019-02-01T18:29:26.426Z,4.30
2019-02-01T18:37:06.284Z,4.30
2019-02-01T18:40:12.644Z,4.30
2019-02-01T18:43:36.654Z,4.20
2019-02-01T18:47:03.567Z,4.00
2019-02-01T18:50:33.963Z,3.80
2019-02-01T18:57:23.517Z,3.90
2019-02-01T19:04:26.137Z,4.10
2019-02-01T19:07:44.298Z,4.10
2019-02-01T19:11:14.711Z,4.10
2019-02-01T19:52:46.994Z,3.80
2019-02-01T20:00:02.863Z,3.90
2019-02-01T20:02:35.777Z,4.10
2019-02-01T20:07:43.617Z,4.20
2019-02-01T20:10:20.215Z,4.30
2019-02-01T20:18:41.927Z,4.30
2019-02-01T20:21:17.464Z,4.30
2019-02-01T20:26:43.205Z,4.10
2019-02-01T20:29:17.766Z,4.10
2019-02-01T20:31:55.331Z,4.10
2019-02-01T20:34:27.291Z,4.10
2019-02-01T20:37:01.120Z,4.20
2019-02-01T20:39:33.124Z,4.20
2019-02-01T20:42:04.843Z,4.20
2019-02-01T20:46:01.650Z,4.30
2019-02-01T20:49:48.309Z,4.30
2019-02-01T20:52:20.916Z,4.40
2019-02-01T20:54:53.689Z,4.40
2019-02-01T20:57:31.497Z,4.50
2019-02-01T21:20:13.760Z,4.40
2019-02-01T21:22:48.927Z,4.40
2019-02-01T21:32:59.399Z,4.50
2019-02-01T21:35:31.857Z,4.50
2019-02-01T21:38:03.111Z,4.60
2019-02-01T21:40:43.371Z,4.50
2019-02-01T21:43:41.423Z,4.50
2019-02-01T21:49:46.353Z,4.50
2019-02-01T21:52:36.507Z,4.40
2019-02-01T21:55:18.850Z,4.30
2019-02-01T21:58:41.624Z,4.30
2019-02-01T22:01:39.973Z,4.30
2019-02-01T22:22:09.401Z,3.80
2019-02-01T22:24:46.015Z,3.90
2019-02-01T22:27:25.169Z,3.90
2019-02-01T22:34:18.669Z,4.00
2019-02-01T22:37:54.335Z,3.90
2019-02-01T22:41:24.995Z,4.00
2019-02-01T22:44:49.588Z,4.00
2019-02-01T22:52:08.990Z,4.10
2019-02-01T22:55:30.912Z,4.00
2019-02-01T23:02:07.250Z,4.10
2019-02-01T23:05:35.195Z,4.10
2019-02-01T23:08:22.251Z,4.00
2019-02-01T23:24:49.041Z,3.60
2019-02-01T23:30:48.123Z,3.40
2019-02-01T23:37:28.037Z,3.20
2019-02-01T23:43:56.943Z,3.20
2019-02-01T23:47:14.576Z,3.20
2019-02-01T23:50:26.917Z,3.30
2019-02-01T23:53:25.750Z,3.30
2019-02-01T23:56:28.189Z,3.40
2019-02-01T23:59:35.534Z,3.40
